Time;durP1;ratioP1;P1;durP2;ratioP2;P2;SDS_P1;SDS_P2;PMS_P1;PMS_P2;Temp;Humidity;BMP_temperature;BMP_pressure;BME280_temperature;BME280_humidity;BME280_pressure;Samples;Min_cycle;Max_cycle;Signal;HPM_P1;HPM_P2
2021/09/22 00:00:25;;;;;;;19.5;15.9;;;;;;;9.21;100;99207.44;;;;
2021/09/22 00:10:24;;;;;;;17.7;14.9;;;;;;;9.24;100;99204.98;;;;
2021/09/22 00:20:24;;;;;;;16.5;12.9;;;;;;;9.24;100;99191.55;;;;
2021/09/22 00:30:22;;;;;;;15.2;13.4;;;;;;;9.12;100;99187.64;;;;
2021/09/22 00:40:21;;;;;;;14.7;13.1;;;;;;;9.08;100;99180.14;;;;
2021/09/22 00:50:20;;;;;;;14.6;11.8;;;;;;;9.06;100;99165.35;;;;
2021/09/22 01:00:19;;;;;;;16.4;10.7;;;;;;;9;100;99155.73;;;;
2021/09/22 01:10:18;;;;;;;14.4;10.9;;;;;;;9.08;100;99139.81;;;;
2021/09/22 01:20:17;;;;;;;11.1;9.8;;;;;;;9.06;100;99123.14;;;;
2021/09/22 01:30:16;;;;;;;17.2;10.3;;;;;;;9.08;100;99110.23;;;;
2021/09/22 01:40:15;;;;;;;12.4;8.5;;;;;;;9.13;100;99114.73;;;;
2021/09/22 01:50:13;;;;;;;9;7.3;;;;;;;9.06;100;99096.25;;;;
2021/09/22 02:20:11;;;;;;;10.2;7.7;;;;;;;8.97;100;99084.53;;;;
2021/09/22 02:30:09;;;;;;;10.7;8;;;;;;;8.89;100;99069.01;;;;
2021/09/22 02:40:08;;;;;;;11.3;6.9;;;;;;;8.89;100;99074.39;;;;
2021/09/22 02:50:07;;;;;;;10.4;6.6;;;;;;;8.9;100;99065.25;;;;
2021/09/22 03:00:06;;;;;;;9.3;7.4;;;;;;;8.85;100;99041.09;;;;
2021/09/22 03:10:05;;;;;;;6.4;3.8;;;;;;;8.68;100;99056.08;;;;
2021/09/22 03:20:04;;;;;;;5.4;2.9;;;;;;;8.61;100;99042.17;;;;
2021/09/22 03:30:03;;;;;;;10.8;5.3;;;;;;;8.49;100;99045.22;;;;
2021/09/22 03:40:03;;;;;;;10.4;5.8;;;;;;;8.46;100;99043.11;;;;
2021/09/22 03:50:03;;;;;;;9.9;6.9;;;;;;;8.39;100;99042.63;;;;
2021/09/22 04:00:03;;;;;;;10.7;7.1;;;;;;;8.38;100;99036.45;;;;
2021/09/22 04:09:58;;;;;;;8;6;;;;;;;8.26;100;99033.28;;;;
2021/09/22 04:19:57;;;;;;;8.8;5.9;;;;;;;8.3;100;99036.24;;;;
2021/09/22 04:29:56;;;;;;;12.5;7;;;;;;;8.17;100;99039.55;;;;
2021/09/22 04:39:55;;;;;;;10;4.9;;;;;;;8.19;100;99042.77;;;;
2021/09/22 04:49:53;;;;;;;10;4.5;;;;;;;8.21;100;99036.03;;;;
2021/09/22 04:59:52;;;;;;;9.5;5.4;;;;;;;8.24;100;99040.03;;;;
2021/09/22 05:09:51;;;;;;;7.5;6.1;;;;;;;8.22;100;99069.05;;;;
2021/09/22 05:19:50;;;;;;;11.8;6.2;;;;;;;8.26;100;99065.52;;;;
2021/09/22 05:29:49;;;;;;;10.8;7.3;;;;;;;8.37;100;99074.32;;;;
2021/09/22 05:39:48;;;;;;;8.4;7.1;;;;;;;8.41;100;99078.05;;;;
2021/09/22 05:49:47;;;;;;;11.3;7.6;;;;;;;8.51;100;99083.34;;;;
2021/09/22 05:59:45;;;;;;;12.3;6.7;;;;;;;8.54;100;99085.45;;;;
2021/09/22 06:09:44;;;;;;;9.5;7;;;;;;;8.68;100;99080.27;;;;
2021/09/22 06:19:43;;;;;;;8.6;6.6;;;;;;;8.77;100;99082.05;;;;
2021/09/22 06:29:42;;;;;;;11.9;6.3;;;;;;;8.89;100;99089.7;;;;
2021/09/22 06:39:41;;;;;;;13.3;7.1;;;;;;;9.14;100;99104.78;;;;
2021/09/22 06:49:40;;;;;;;12.1;6.4;;;;;;;9.41;100;99105.02;;;;
2021/09/22 06:59:39;;;;;;;8.4;6;;;;;;;9.48;100;99097.4;;;;
2021/09/22 07:09:38;;;;;;;8;5.6;;;;;;;9.55;100;99108.61;;;;
2021/09/22 07:19:37;;;;;;;9.8;6.1;;;;;;;9.65;100;99113.87;;;;
2021/09/22 07:29:36;;;;;;;11.2;6.9;;;;;;;9.7;100;99121.09;;;;
2021/09/22 07:39:35;;;;;;;10.3;5.1;;;;;;;9.63;100;99131.41;;;;
2021/09/22 07:49:34;;;;;;;6.7;5;;;;;;;9.69;100;99133.73;;;;
2021/09/22 07:59:33;;;;;;;6.9;4.9;;;;;;;9.85;100;99143.25;;;;
2021/09/22 08:09:32;;;;;;;8.6;4.5;;;;;;;9.92;100;99159.84;;;;
2021/09/22 08:19:33;;;;;;;6.8;4.1;;;;;;;9.58;100;99183.38;;;;
2021/09/22 08:29:30;;;;;;;5.7;2.1;;;;;;;9.29;100;99183.44;;;;
2021/09/22 08:39:32;;;;;;;4.7;2.2;;;;;;;9.5;100;99184.03;;;;
2021/09/22 08:49:28;;;;;;;2.4;1.3;;;;;;;10.04;100;99180.95;;;;
2021/09/22 08:59:27;;;;;;;4.4;1.8;;;;;;;10.4;100;99178.61;;;;
2021/09/22 09:09:26;;;;;;;3.8;2.2;;;;;;;11.21;100;99190.81;;;;
2021/09/22 09:19:25;;;;;;;8.2;2.3;;;;;;;11.99;100;99188.79;;;;
2021/09/22 09:29:24;;;;;;;5.9;3.5;;;;;;;12.05;100;99184.87;;;;
2021/09/22 09:39:24;;;;;;;5.2;3.5;;;;;;;12.59;100;99183.16;;;;
2021/09/22 09:49:23;;;;;;;6.9;3.7;;;;;;;12.37;100;99177.7;;;;
2021/09/22 09:59:22;;;;;;;4.8;2.6;;;;;;;12.76;100;99172.47;;;;
2021/09/22 10:09:22;;;;;;;4.4;2.5;;;;;;;12.72;100;99190.41;;;;
2021/09/22 10:19:21;;;;;;;5.7;3.3;;;;;;;12.43;100;99182.69;;;;
2021/09/22 10:29:20;;;;;;;6.5;3.4;;;;;;;12.53;100;99187.86;;;;
2021/09/22 10:39:20;;;;;;;7.4;4.7;;;;;;;12.24;100;99189.35;;;;
2021/09/22 10:49:19;;;;;;;5;3.1;;;;;;;11.99;100;99183.38;;;;
2021/09/22 10:59:18;;;;;;;7.7;4.5;;;;;;;11.86;100;99192.3;;;;
2021/09/22 11:09:18;;;;;;;4;2.4;;;;;;;11.89;100;99190.89;;;;
2021/09/22 11:19:18;;;;;;;6.4;3.7;;;;;;;11.94;100;99191.58;;;;
2021/09/22 11:29:16;;;;;;;8.6;4.1;;;;;;;12.08;100;99189.67;;;;
2021/09/22 11:39:16;;;;;;;6.7;3.6;;;;;;;12.2;100;99186.45;;;;
2021/09/22 11:49:15;;;;;;;7.8;4.6;;;;;;;12.05;100;99194.88;;;;
2021/09/22 11:59:15;;;;;;;9.3;5.5;;;;;;;12.05;100;99192.17;;;;
2021/09/22 12:09:14;;;;;;;7;3.7;;;;;;;11.92;100;99204.59;;;;
2021/09/22 12:19:13;;;;;;;6.6;3;;;;;;;11.91;100;99213.8;;;;
2021/09/22 12:29:13;;;;;;;5.7;3.9;;;;;;;12.06;100;99209.98;;;;
2021/09/22 12:39:12;;;;;;;5.5;3.6;;;;;;;12.15;100;99218.2;;;;
2021/09/22 12:49:11;;;;;;;7.5;4.4;;;;;;;12.61;100;99216.89;;;;
2021/09/22 12:59:11;;;;;;;7.6;4;;;;;;;12.73;100;99224.48;;;;
2021/09/22 13:09:10;;;;;;;5.9;3.1;;;;;;;12.66;100;99221.39;;;;
2021/09/22 13:19:10;;;;;;;7;4.4;;;;;;;12.8;100;99216.73;;;;
2021/09/22 13:29:09;;;;;;;7.9;4.1;;;;;;;12.77;100;99233.59;;;;
2021/09/22 13:39:09;;;;;;;4.6;2.6;;;;;;;12.48;100;99233.16;;;;
2021/09/22 13:49:08;;;;;;;5.6;2.8;;;;;;;12.55;100;99233.54;;;;
2021/09/22 13:59:07;;;;;;;9.4;3.6;;;;;;;12.32;100;99234.59;;;;
2021/09/22 14:09:07;;;;;;;8.1;5;;;;;;;12.61;100;99233.11;;;;
2021/09/22 14:19:06;;;;;;;10.1;6.7;;;;;;;12.77;100;99230.08;;;;
2021/09/22 14:29:06;;;;;;;4.6;2.6;;;;;;;12.9;100;99230.02;;;;
2021/09/22 14:39:05;;;;;;;7.9;4.3;;;;;;;12.85;100;99227.42;;;;
2021/09/22 14:49:05;;;;;;;5.8;3.4;;;;;;;13;100;99223.56;;;;
2021/09/22 14:59:04;;;;;;;6.7;3.8;;;;;;;12.75;100;99218.75;;;;
2021/09/22 15:09:03;;;;;;;5.9;3.7;;;;;;;12.51;100;99227.94;;;;
2021/09/22 15:19:03;;;;;;;7.3;4.2;;;;;;;12.16;100;99220.59;;;;
2021/09/22 15:29:02;;;;;;;7.1;4.8;;;;;;;11.94;100;99225.92;;;;
2021/09/22 15:39:02;;;;;;;13.5;5.7;;;;;;;11.78;100;99230.8;;;;
2021/09/22 15:49:01;;;;;;;9.6;5.5;;;;;;;11.55;100;99231.76;;;;
2021/09/22 15:59:00;;;;;;;10.1;7.5;;;;;;;11.49;100;99227.52;;;;
2021/09/22 16:08:59;;;;;;;13.6;10.2;;;;;;;11.35;100;99226.73;;;;
2021/09/22 16:18:58;;;;;;;9.9;8.7;;;;;;;11.26;100;99236.58;;;;
2021/09/22 16:28:58;;;;;;;36.5;30;;;;;;;11.25;100;99234.97;;;;
2021/09/22 16:38:57;;;;;;;17.6;10;;;;;;;11.03;100;99238.31;;;;
2021/09/22 16:48:56;;;;;;;15.1;10.8;;;;;;;10.74;100;99233.09;;;;
2021/09/22 16:58:55;;;;;;;18.6;11.1;;;;;;;10.69;100;99232.38;;;;
2021/09/22 17:08:55;;;;;;;19;14.4;;;;;;;10.6;100;99237.61;;;;
2021/09/22 17:18:54;;;;;;;16.1;13.6;;;;;;;10.65;100;99234.85;;;;
2021/09/22 17:28:54;;;;;;;22.2;15.5;;;;;;;10.59;100;99252.97;;;;
2021/09/22 17:38:52;;;;;;;28.4;15.8;;;;;;;10.5;100;99235.06;;;;
2021/09/22 17:48:51;;;;;;;21.8;18.7;;;;;;;10.41;100;99245.67;;;;
2021/09/22 17:58:50;;;;;;;21.4;19.1;;;;;;;10.44;100;99245.12;;;;
2021/09/22 18:08:49;;;;;;;29;23;;;;;;;10.36;100;99232.28;;;;
2021/09/22 18:18:48;;;;;;;33.1;26.1;;;;;;;10.42;100;99235.7;;;;
2021/09/22 18:28:47;;;;;;;45.5;40.4;;;;;;;10.28;100;99232.11;;;;
2021/09/22 18:38:46;;;;;;;43.3;36.1;;;;;;;10.29;100;99225.64;;;;
2021/09/22 18:48:46;;;;;;;33.5;22.6;;;;;;;10.08;100;99225.88;;;;
2021/09/22 18:58:44;;;;;;;31.7;25.5;;;;;;;10.19;100;99218.5;;;;
2021/09/22 19:08:43;;;;;;;30.4;24.5;;;;;;;10.18;100;99214.2;;;;
2021/09/22 19:18:42;;;;;;;28;25.2;;;;;;;10.06;100;99208.41;;;;
2021/09/22 19:28:41;;;;;;;28.8;23.5;;;;;;;10.11;100;99205.64;;;;
2021/09/22 19:38:40;;;;;;;29.6;22.1;;;;;;;10.15;100;99204;;;;
2021/09/22 19:48:40;;;;;;;23.8;18.4;;;;;;;10.15;100;99219.36;;;;
2021/09/22 19:58:39;;;;;;;25;22.7;;;;;;;10.22;100;99225.2;;;;
2021/09/22 20:08:38;;;;;;;25;22.3;;;;;;;10.1;100;99237.15;;;;
2021/09/22 20:18:37;;;;;;;29.8;21.6;;;;;;;10.09;100;99215.91;;;;
2021/09/22 20:28:36;;;;;;;26.5;22.3;;;;;;;10.03;100;99217.84;;;;
2021/09/22 20:38:39;;;;;;;26.3;21.3;;;;;;;10;100;99218.42;;;;
2021/09/22 20:48:35;;;;;;;32.5;29;;;;;;;9.93;100;99215.28;;;;
2021/09/22 20:58:35;;;;;;;26.6;23.7;;;;;;;9.9;100;99221.24;;;;
2021/09/22 21:08:35;;;;;;;24.4;21.1;;;;;;;9.9;100;99223.94;;;;
2021/09/22 21:18:31;;;;;;;27.5;21.9;;;;;;;9.88;100;99211.86;;;;
2021/09/22 21:28:30;;;;;;;25.9;19.8;;;;;;;9.83;100;99218.09;;;;
2021/09/22 21:38:29;;;;;;;23.7;20;;;;;;;9.81;100;99216.78;;;;
2021/09/22 21:48:28;;;;;;;26.4;19.1;;;;;;;9.71;100;99209.63;;;;
2021/09/22 21:58:27;;;;;;;24.1;16.6;;;;;;;9.76;100;99211.45;;;;
2021/09/22 22:08:26;;;;;;;25.1;16.9;;;;;;;9.7;100;99205.33;;;;
2021/09/22 22:18:25;;;;;;;23;18.6;;;;;;;9.64;100;99201.09;;;;
2021/09/22 22:28:24;;;;;;;24;18.2;;;;;;;9.69;100;99192.95;;;;
2021/09/22 22:38:23;;;;;;;22.5;20.1;;;;;;;9.61;100;99182.84;;;;
2021/09/22 22:48:22;;;;;;;29.8;22.1;;;;;;;9.72;100;99184.3;;;;
2021/09/22 22:58:21;;;;;;;21.9;19.6;;;;;;;9.7;100;99185.69;;;;
2021/09/22 23:08:20;;;;;;;21.9;19.5;;;;;;;9.7;100;99173.03;;;;
2021/09/22 23:18:27;;;;;;;22.4;20.2;;;;;;;9.73;100;99183.22;;;;
2021/09/22 23:28:18;;;;;;;24;21.6;;;;;;;9.66;100;99190.84;;;;
2021/09/22 23:38:16;;;;;;;24.6;21.3;;;;;;;9.69;100;99192.14;;;;
2021/09/22 23:48:15;;;;;;;30.3;23;;;;;;;9.58;100;99189.57;;;;
2021/09/22 23:58:14;;;;;;;28.7;23.3;;;;;;;9.53;100;99178.88;;;;
